createdAt,value
2018-07-07T00:01:51.253Z,98879.48
2018-07-07T00:04:20.462Z,98876.75
2018-07-07T00:06:49.704Z,98877.05
2018-07-07T00:09:18.920Z,98877.34
2018-07-07T00:11:48.096Z,98880.20
2018-07-07T00:14:17.509Z,98873.57
2018-07-07T00:16:46.713Z,98873.91
2018-07-07T00:19:15.894Z,98878.44
2018-07-07T00:21:45.160Z,98878.72
2018-07-07T00:24:14.560Z,98876.28
2018-07-07T00:26:43.793Z,98874.79
2018-07-07T00:29:13.136Z,98871.61
2018-07-07T00:31:42.286Z,98878.50
2018-07-07T00:34:11.632Z,98880.21
2018-07-07T00:36:40.850Z,98881.13
2018-07-07T00:39:10.075Z,98880.00
2018-07-07T00:41:39.209Z,98878.52
2018-07-07T00:44:08.460Z,98872.14
2018-07-07T00:46:37.688Z,98878.38
2018-07-07T00:49:06.919Z,98876.95
2018-07-07T00:51:36.164Z,98881.98
2018-07-07T00:54:05.339Z,98881.72
2018-07-07T00:56:34.484Z,98880.48
2018-07-07T00:59:03.984Z,98887.80
2018-07-07T01:01:33.212Z,98888.33
2018-07-07T01:04:02.389Z,98887.17
2018-07-07T01:06:32.884Z,98890.50
2018-07-07T01:09:02.164Z,98900.42
2018-07-07T01:11:31.393Z,98891.11
2018-07-07T01:14:00.604Z,98890.67
2018-07-07T01:16:29.728Z,98890.10
2018-07-07T01:18:58.948Z,98898.97
2018-07-07T01:21:28.234Z,98894.29
2018-07-07T01:23:57.404Z,98893.91
2018-07-07T01:26:26.621Z,98888.30
2018-07-07T01:28:55.848Z,98886.95
2018-07-07T01:31:25.067Z,98891.31
2018-07-07T01:33:54.250Z,98890.59
2018-07-07T01:36:23.393Z,98882.30
2018-07-07T01:38:52.561Z,98882.17
2018-07-07T01:41:21.821Z,98887.13
2018-07-07T01:43:51.117Z,98891.78
2018-07-07T01:46:20.240Z,98888.47
2018-07-07T01:48:49.449Z,98890.66
2018-07-07T01:51:18.685Z,98892.16
2018-07-07T01:53:47.809Z,98891.20
2018-07-07T01:56:17.107Z,98890.61
2018-07-07T01:58:46.506Z,98889.33
2018-07-07T02:01:15.894Z,98892.72
2018-07-07T02:03:45.085Z,98891.67
2018-07-07T02:06:14.376Z,98896.66
2018-07-07T02:08:43.537Z,98892.09
2018-07-07T02:11:12.782Z,98893.13
2018-07-07T02:13:42.233Z,98896.16
2018-07-07T02:16:11.407Z,98897.30
2018-07-07T02:18:40.682Z,98891.95
2018-07-07T02:21:09.860Z,98895.83
2018-07-07T02:23:39.009Z,98891.27
2018-07-07T02:26:08.228Z,98896.45
2018-07-07T02:28:37.466Z,98893.94
2018-07-07T02:31:06.986Z,98896.96
2018-07-07T02:33:36.172Z,98901.97
2018-07-07T02:36:05.364Z,98902.73
2018-07-07T02:38:34.870Z,98905.69
2018-07-07T02:41:04.060Z,98906.18
2018-07-07T02:43:33.389Z,98907.33
2018-07-07T02:46:02.577Z,98906.45
2018-07-07T02:48:31.717Z,98899.79
2018-07-07T02:51:00.976Z,98907.55
2018-07-07T02:53:30.358Z,98900.78
2018-07-07T02:55:59.653Z,98901.66
2018-07-07T02:58:28.921Z,98898.99
2018-07-07T03:00:58.261Z,98906.72
2018-07-07T03:03:27.457Z,98906.23
2018-07-07T03:05:56.857Z,98912.69
2018-07-07T03:08:25.980Z,98910.41
2018-07-07T03:10:55.211Z,98909.38
2018-07-07T03:13:24.330Z,98913.53
2018-07-07T03:15:53.748Z,98915.75
2018-07-07T03:18:22.905Z,98915.15
2018-07-07T03:20:52.388Z,98923.73
2018-07-07T03:23:21.605Z,98923.02
2018-07-07T03:25:50.808Z,98926.44
2018-07-07T03:28:19.973Z,98928.85
2018-07-07T03:30:49.128Z,98935.28
2018-07-07T03:33:18.337Z,98934.27
2018-07-07T03:35:47.517Z,98940.03
2018-07-07T03:38:16.665Z,98941.16
2018-07-07T03:40:45.857Z,98941.98
2018-07-07T03:43:14.991Z,98955.17
2018-07-07T03:45:44.153Z,98958.29
2018-07-07T03:48:13.323Z,98959.59
2018-07-07T03:50:42.476Z,98960.09
2018-07-07T03:53:11.761Z,98962.72
2018-07-07T03:55:40.992Z,98967.24
2018-07-07T03:58:10.258Z,98973.16
2018-07-07T04:00:39.522Z,98971.49
2018-07-07T04:03:09.283Z,98968.33
2018-07-07T04:05:38.513Z,98981.20
2018-07-07T04:08:07.712Z,98977.92
2018-07-07T04:10:36.845Z,98981.52
2018-07-07T04:13:06.370Z,98978.06
2018-07-07T04:15:35.509Z,98977.87
2018-07-07T04:18:04.798Z,98981.19
2018-07-07T04:20:33.924Z,98983.55
2018-07-07T04:23:03.196Z,98979.24
2018-07-07T04:25:32.455Z,98983.34
2018-07-07T04:28:01.689Z,98980.31
2018-07-07T04:30:30.908Z,98973.30
2018-07-07T04:33:00.190Z,98981.58
2018-07-07T04:35:29.346Z,98978.80
2018-07-07T04:37:59.604Z,98983.73
2018-07-07T04:40:28.744Z,98985.97
2018-07-07T04:42:57.937Z,98984.87
2018-07-07T04:45:27.334Z,98983.41
2018-07-07T04:47:56.642Z,98984.63
2018-07-07T04:50:25.910Z,98986.78
2018-07-07T04:52:55.318Z,98984.46
2018-07-07T04:55:24.724Z,98985.19
2018-07-07T04:57:54.247Z,98981.78
2018-07-07T05:00:23.617Z,98985.20
2018-07-07T05:02:52.814Z,98987.64
2018-07-07T05:05:22.073Z,98984.92
2018-07-07T05:07:51.337Z,98992.12
2018-07-07T05:10:20.605Z,98990.89
2018-07-07T05:12:49.919Z,98991.83
2018-07-07T05:15:19.181Z,99001.23
2018-07-07T05:17:48.416Z,98995.55
2018-07-07T05:20:18.120Z,98995.52
2018-07-07T05:22:47.343Z,98999.05
2018-07-07T05:25:16.496Z,99000.16
2018-07-07T05:27:45.685Z,99001.58
2018-07-07T05:30:14.957Z,99005.56
2018-07-07T05:32:44.233Z,99006.04
2018-07-07T05:35:13.381Z,99001.90
2018-07-07T05:37:42.608Z,99005.66
2018-07-07T05:40:11.864Z,99006.34
2018-07-07T05:42:41.085Z,99008.73
2018-07-07T05:45:10.358Z,99011.70
2018-07-07T05:47:39.585Z,99011.63
2018-07-07T05:50:08.899Z,99011.81
2018-07-07T05:52:38.189Z,99014.04
2018-07-07T05:55:07.533Z,99023.20
2018-07-07T05:57:36.730Z,99016.94
2018-07-07T06:00:05.902Z,99018.39
2018-07-07T06:02:35.073Z,99023.70
2018-07-07T06:05:04.389Z,98825.06
2018-07-07T06:07:33.678Z,99021.24
2018-07-07T06:10:03.422Z,99021.98
2018-07-07T06:12:32.903Z,99021.98
2018-07-07T06:15:02.262Z,99013.21
2018-07-07T06:17:31.489Z,99015.09
2018-07-07T06:20:00.748Z,99010.92
2018-07-07T06:22:30.019Z,99014.03
2018-07-07T06:24:59.421Z,99007.37
2018-07-07T06:27:28.809Z,99007.37
2018-07-07T06:29:58.183Z,99009.61
2018-07-07T06:32:27.592Z,99010.11
2018-07-07T06:34:56.728Z,99012.66
2018-07-07T06:37:25.973Z,99006.34
2018-07-07T06:39:55.085Z,99008.33
2018-07-07T06:42:24.273Z,99013.03
2018-07-07T06:44:53.448Z,99013.13
2018-07-07T06:47:22.674Z,99014.09
2018-07-07T06:49:51.801Z,99014.18
2018-07-07T06:52:21.372Z,99003.92
2018-07-07T06:54:50.629Z,99009.92
2018-07-07T06:57:20.613Z,99010.06
2018-07-07T06:59:50.640Z,99007.56
2018-07-07T07:02:20.497Z,99002.63
2018-07-07T07:04:49.666Z,99004.08
2018-07-07T07:07:18.897Z,99006.19
2018-07-07T07:09:48.065Z,99005.87
2018-07-07T07:12:17.320Z,99000.94
2018-07-07T07:14:46.558Z,98997.77
2018-07-07T07:17:15.789Z,99001.06
2018-07-07T07:19:45.157Z,98994.72
2018-07-07T07:22:14.422Z,98995.59
2018-07-07T07:24:43.841Z,98992.64
2018-07-07T07:27:13.101Z,98998.31
2018-07-07T07:29:42.248Z,99000.11
2018-07-07T07:32:11.481Z,99001.08
2018-07-07T07:34:40.678Z,98999.31
2018-07-07T07:37:09.922Z,98997.56
2018-07-07T07:39:39.051Z,98999.06
2018-07-07T07:42:08.306Z,98993.80
2018-07-07T07:44:37.544Z,98992.02
2018-07-07T07:47:06.785Z,98998.05
2018-07-07T07:49:35.915Z,98985.22
2018-07-07T07:52:05.205Z,98984.27
2018-07-07T07:54:34.600Z,98982.08
2018-07-07T07:57:03.899Z,98982.78
2018-07-07T07:59:33.175Z,98975.15
2018-07-07T08:02:02.499Z,98979.19
2018-07-07T08:04:31.627Z,98981.68
2018-07-07T08:07:00.849Z,98980.05
2018-07-07T08:09:29.985Z,98978.13
2018-07-07T08:11:59.186Z,98981.29
2018-07-07T08:14:29.777Z,98985.28
2018-07-07T08:16:58.985Z,98982.73
2018-07-07T08:19:28.686Z,98983.97
2018-07-07T08:24:26.029Z,98981.76
2018-07-07T08:26:55.286Z,98980.77
2018-07-07T08:29:24.611Z,98984.94
2018-07-07T08:31:53.889Z,98989.26
2018-07-07T08:34:23.208Z,98984.12
2018-07-07T08:36:52.473Z,98991.39
2018-07-07T08:39:21.627Z,98989.58
2018-07-07T08:41:51.021Z,98988.48
2018-07-07T08:44:20.261Z,98983.96
2018-07-07T08:46:49.591Z,98983.80
2018-07-07T08:49:18.734Z,98983.48
2018-07-07T08:51:48.089Z,98982.13
2018-07-07T08:54:17.311Z,98983.88
2018-07-07T08:56:46.553Z,98979.40
2018-07-07T08:59:15.749Z,98980.58
2018-07-07T09:01:45.049Z,98983.85
2018-07-07T09:04:14.272Z,98978.88
2018-07-07T09:06:43.445Z,98981.58
2018-07-07T09:09:12.665Z,98982.61
2018-07-07T09:11:41.965Z,98970.30
2018-07-07T09:14:11.268Z,98971.23
2018-07-07T09:16:40.666Z,98966.95
2018-07-07T09:19:09.909Z,98963.32
2018-07-07T09:21:39.163Z,98970.72
2018-07-07T09:24:08.422Z,98969.14
2018-07-07T09:26:37.762Z,98974.71
2018-07-07T09:29:06.901Z,98963.73
2018-07-07T09:31:36.187Z,98959.75
2018-07-07T09:34:05.357Z,98954.31
2018-07-07T09:36:34.685Z,98956.22
2018-07-07T09:39:04.753Z,98956.49
2018-07-07T09:41:34.156Z,98951.23
2018-07-07T09:44:03.530Z,98958.17
2018-07-07T09:46:32.719Z,98953.09
2018-07-07T09:49:02.075Z,98956.31
2018-07-07T09:51:31.374Z,98958.03
2018-07-07T09:54:00.671Z,98949.81
2018-07-07T09:56:29.905Z,98949.27
2018-07-07T09:58:59.224Z,98948.11
2018-07-07T10:01:28.442Z,98946.91
2018-07-07T10:03:57.622Z,98941.83
2018-07-07T10:06:26.837Z,98940.20
2018-07-07T10:08:56.045Z,98946.70
2018-07-07T10:11:25.201Z,98941.03
2018-07-07T10:13:55.389Z,98946.95
2018-07-07T10:16:25.430Z,98936.28
2018-07-07T10:18:54.668Z,98943.24
2018-07-07T10:21:23.903Z,98475.34
2018-07-07T10:23:53.182Z,98936.64
2018-07-07T10:26:22.353Z,98931.10
2018-07-07T10:28:51.685Z,98938.99
2018-07-07T10:31:20.925Z,98929.06
2018-07-07T10:33:50.128Z,98927.14
2018-07-07T10:36:19.260Z,98937.30
2018-07-07T10:38:48.431Z,98921.20
2018-07-07T10:41:17.597Z,98930.13
2018-07-07T10:43:46.947Z,98922.88
2018-07-07T10:46:16.076Z,98916.38
2018-07-07T10:48:45.449Z,98911.79
2018-07-07T10:51:14.573Z,98910.40
2018-07-07T10:53:43.836Z,98902.72
2018-07-07T10:56:12.967Z,98908.92
2018-07-07T10:58:42.167Z,98912.66
2018-07-07T11:01:11.396Z,98909.33
2018-07-07T11:03:40.618Z,98910.41
2018-07-07T11:06:09.730Z,98907.55
2018-07-07T11:08:39.015Z,98909.55
2018-07-07T11:11:08.327Z,98903.11
2018-07-07T11:13:37.493Z,98898.76
2018-07-07T11:16:06.821Z,98896.34
2018-07-07T11:18:36.010Z,98904.45
2018-07-07T11:21:05.293Z,98899.83
2018-07-07T11:23:34.652Z,98900.16
2018-07-07T11:26:03.788Z,98894.69
2018-07-07T11:28:33.135Z,98885.69
2018-07-07T11:31:02.327Z,98888.97
2018-07-07T11:33:31.644Z,98886.95
2018-07-07T11:36:00.932Z,98890.69
2018-07-07T11:38:30.176Z,98886.09
2018-07-07T11:40:59.736Z,98887.63
2018-07-07T11:43:29.232Z,98872.52
2018-07-07T11:45:58.441Z,98878.55
2018-07-07T11:48:27.736Z,98885.26
2018-07-07T11:50:56.944Z,98887.44
2018-07-07T11:53:26.146Z,98888.80
2018-07-07T11:55:55.447Z,98874.73
2018-07-07T11:58:24.700Z,98871.78
2018-07-07T12:00:53.858Z,98878.80
2018-07-07T12:03:23.057Z,98870.61
2018-07-07T12:05:52.258Z,98865.45
2018-07-07T12:08:21.506Z,98871.33
2018-07-07T12:10:50.774Z,98874.47
2018-07-07T12:13:20.165Z,98874.73
2018-07-07T12:15:49.417Z,98865.30
2018-07-07T12:18:18.720Z,98864.50
2018-07-07T12:20:48.119Z,98859.38
2018-07-07T12:23:17.316Z,98875.56
2018-07-07T12:25:46.501Z,98871.20
2018-07-07T12:28:15.728Z,98864.97
2018-07-07T12:30:45.573Z,98866.11
2018-07-07T12:33:14.805Z,98856.84
2018-07-07T12:35:44.024Z,98862.33
2018-07-07T12:38:13.246Z,98858.20
2018-07-07T12:40:42.593Z,98845.78
2018-07-07T12:43:11.822Z,98850.95
2018-07-07T12:45:41.124Z,98853.39
2018-07-07T12:48:10.425Z,98850.42
2018-07-07T12:50:39.767Z,98849.27
2018-07-07T12:53:08.976Z,98852.45
2018-07-07T12:55:38.226Z,98843.81
2018-07-07T12:58:07.492Z,98845.92
2018-07-07T13:00:36.693Z,98845.17
2018-07-07T13:03:05.847Z,98842.41
2018-07-07T13:05:35.204Z,98838.88
2018-07-07T13:08:04.403Z,98834.90
2018-07-07T13:10:33.818Z,98836.02
2018-07-07T13:13:03.106Z,98836.66
2018-07-07T13:15:32.404Z,98826.62
2018-07-07T13:18:01.810Z,98833.25
2018-07-07T13:20:30.979Z,98839.14
2018-07-07T13:23:00.229Z,98831.92
2018-07-07T13:25:29.569Z,98833.39
2018-07-07T13:27:58.750Z,98830.95
2018-07-07T13:30:27.945Z,98831.48
2018-07-07T13:32:57.163Z,98832.34
2018-07-07T13:35:26.292Z,98819.90
2018-07-07T13:37:55.658Z,98830.12
2018-07-07T13:40:24.835Z,98828.27
2018-07-07T13:42:54.391Z,98833.67
2018-07-07T13:45:23.621Z,98825.81
2018-07-07T13:47:52.833Z,98821.66
2018-07-07T13:50:22.069Z,98826.65
2018-07-07T13:52:51.303Z,98822.03
2018-07-07T13:55:20.411Z,98827.37
2018-07-07T13:57:49.737Z,98821.67
2018-07-07T14:00:19.069Z,98820.30
2018-07-07T14:02:48.317Z,98824.83
2018-07-07T14:05:17.505Z,98819.26
2018-07-07T14:07:46.759Z,98821.06
2018-07-07T14:10:16.081Z,98821.09
2018-07-07T14:12:45.356Z,98812.67
2018-07-07T14:15:14.676Z,98825.16
2018-07-07T14:17:44.382Z,98815.59
2018-07-07T14:20:13.801Z,98819.26
2018-07-07T14:22:43.104Z,98814.89
2018-07-07T14:25:12.498Z,98814.16
2018-07-07T14:27:41.682Z,98820.16
2018-07-07T14:30:11.456Z,98817.03
2018-07-07T14:32:40.794Z,98817.23
2018-07-07T14:35:10.095Z,98814.38
2018-07-07T14:37:39.397Z,98820.33
2018-07-07T14:40:08.693Z,98819.73
2018-07-07T14:42:50.708Z,98808.70
2018-07-07T14:45:24.152Z,98804.62
2018-07-07T14:47:54.370Z,98813.33
2018-07-07T14:50:23.849Z,98818.26
2018-07-07T14:52:53.113Z,98817.09
2018-07-07T14:55:25.396Z,98815.16
2018-07-07T14:57:54.636Z,98814.61
2018-07-07T15:00:25.244Z,98808.30
2018-07-07T15:02:55.861Z,98813.64
2018-07-07T15:05:25.171Z,98812.28
2018-07-07T15:07:54.400Z,98820.45
2018-07-07T15:10:23.743Z,98814.14
2018-07-07T15:12:53.122Z,98811.41
2018-07-07T15:15:22.441Z,98817.91
2018-07-07T15:17:51.638Z,98806.94
2018-07-07T15:20:20.850Z,98804.47
2018-07-07T15:22:50.421Z,98812.11
2018-07-07T15:25:20.053Z,98811.00
2018-07-07T15:27:49.394Z,98805.59
2018-07-07T15:30:18.695Z,98814.35
2018-07-07T15:32:48.155Z,98803.38
2018-07-07T15:35:17.426Z,98800.45
2018-07-07T15:37:46.714Z,98799.83
2018-07-07T15:40:15.930Z,98793.94
2018-07-07T15:42:45.091Z,98801.12
2018-07-07T15:45:14.365Z,98799.34
2018-07-07T15:47:43.632Z,98796.40
2018-07-07T15:50:13.228Z,98805.34
2018-07-07T15:52:42.533Z,98800.72
2018-07-07T15:55:11.850Z,98793.44
2018-07-07T15:57:41.206Z,98802.83
2018-07-07T16:00:11.506Z,98793.15
2018-07-07T16:02:42.003Z,98794.78
2018-07-07T16:05:11.239Z,98795.84
2018-07-07T16:07:40.581Z,98801.02
2018-07-07T16:10:09.953Z,98566.41
2018-07-07T16:12:39.292Z,98794.27
2018-07-07T16:15:08.508Z,98795.34
2018-07-07T16:17:37.843Z,98798.83
2018-07-07T16:20:07.098Z,98794.42
2018-07-07T16:22:36.379Z,98794.67
2018-07-07T16:25:05.651Z,98796.41
2018-07-07T16:27:34.828Z,98793.33
2018-07-07T16:30:04.299Z,98798.69
2018-07-07T16:32:33.988Z,98793.25
2018-07-07T16:35:05.844Z,98784.59
2018-07-07T16:37:35.146Z,98707.65
2018-07-07T16:40:04.655Z,98789.59
2018-07-07T16:42:36.000Z,98782.70
2018-07-07T16:45:05.523Z,98779.59
2018-07-07T16:47:34.823Z,98776.70
2018-07-07T16:50:04.224Z,98773.43
2018-07-07T16:52:33.525Z,98775.86
2018-07-07T16:55:02.912Z,98779.75
2018-07-07T16:57:32.226Z,98772.57
2018-07-07T17:00:01.628Z,98773.97
2018-07-07T17:02:31.148Z,98772.91
2018-07-07T17:05:00.431Z,98776.42
2018-07-07T17:07:29.918Z,98782.36
2018-07-07T17:09:59.335Z,98782.36
2018-07-07T17:12:28.642Z,98784.52
2018-07-07T17:14:57.889Z,98778.05
2018-07-07T17:17:27.156Z,98783.20
2018-07-07T17:19:57.407Z,98775.38
2018-07-07T17:22:27.066Z,98779.97
2018-07-07T17:24:56.956Z,98780.25
2018-07-07T17:27:26.692Z,98782.62
2018-07-07T17:29:56.651Z,98776.57
2018-07-07T17:32:25.949Z,98782.81
2018-07-07T17:34:56.064Z,98780.16
2018-07-07T17:37:25.334Z,98780.97
2018-07-07T17:39:54.824Z,98788.78
2018-07-07T17:42:24.270Z,98785.16
2018-07-07T17:44:54.045Z,98791.94
2018-07-07T17:47:23.340Z,98792.75
2018-07-07T17:49:52.616Z,98797.86
2018-07-07T17:52:22.564Z,98797.64
2018-07-07T17:54:52.111Z,98800.56
2018-07-07T17:57:21.446Z,98801.09
2018-07-07T17:59:50.797Z,98806.02
2018-07-07T18:02:20.053Z,98799.43
2018-07-07T18:04:49.564Z,98807.77
2018-07-07T18:07:19.069Z,98800.45
2018-07-07T18:09:48.573Z,98807.05
2018-07-07T18:12:17.805Z,98797.85
2018-07-07T18:14:47.359Z,98799.97
2018-07-07T18:17:16.671Z,98801.20
2018-07-07T18:19:45.930Z,98800.03
2018-07-07T18:22:15.153Z,98800.84
2018-07-07T18:24:44.516Z,98801.32
2018-07-07T18:27:13.676Z,98804.84
2018-07-07T18:29:43.168Z,98805.70
2018-07-07T18:32:12.475Z,98808.83
2018-07-07T18:34:41.786Z,98807.25
2018-07-07T18:37:11.059Z,98809.84
2018-07-07T18:39:40.343Z,98811.27
2018-07-07T18:42:10.132Z,98809.13
2018-07-07T18:44:39.913Z,98806.34
2018-07-07T18:47:09.177Z,98807.59
2018-07-07T18:49:38.491Z,98811.11
2018-07-07T18:52:07.677Z,98812.85
2018-07-07T18:54:37.297Z,98815.77
2018-07-07T18:57:06.517Z,98815.98
2018-07-07T18:59:35.907Z,98817.02
2018-07-07T19:02:05.785Z,98809.59
2018-07-07T19:04:35.165Z,98810.31
2018-07-07T19:07:04.505Z,98808.45
2018-07-07T19:09:33.724Z,98808.56
2018-07-07T19:12:03.092Z,98814.38
2018-07-07T19:14:32.411Z,98810.84
2018-07-07T19:17:01.866Z,98810.58
2018-07-07T19:19:31.221Z,98812.56
2018-07-07T19:22:05.650Z,98817.22
2018-07-07T19:24:40.138Z,98814.43
2018-07-07T19:27:09.447Z,98818.88
2018-07-07T19:29:38.612Z,98817.51
2018-07-07T19:32:13.285Z,98820.91
2018-07-07T19:34:47.833Z,98819.80
2018-07-07T19:37:19.101Z,98830.86
2018-07-07T19:39:48.552Z,98827.39
2018-07-07T19:42:18.126Z,98833.58
2018-07-07T19:44:47.456Z,98842.67
2018-07-07T19:47:16.859Z,98837.80
2018-07-07T19:49:46.231Z,98843.60
2018-07-07T19:52:15.565Z,98847.17
2018-07-07T19:54:44.893Z,98842.48
2018-07-07T19:57:14.246Z,98846.18
2018-07-07T19:59:43.480Z,98851.99
2018-07-07T20:02:12.881Z,98852.77
2018-07-07T20:04:42.207Z,98847.55
2018-07-07T20:07:11.643Z,98853.95
2018-07-07T20:09:40.891Z,98860.80
2018-07-07T20:12:10.052Z,98859.71
2018-07-07T20:14:39.270Z,98857.02
2018-07-07T20:17:09.855Z,98852.48
2018-07-07T20:20:58.730Z,98858.48
2018-07-07T20:23:29.101Z,98853.73
2018-07-07T20:26:03.036Z,98857.74
2018-07-07T20:28:37.619Z,98853.73
2018-07-07T20:31:06.933Z,98861.76
2018-07-07T20:33:36.108Z,98858.73
2018-07-07T20:36:05.428Z,98860.67
2018-07-07T20:38:34.587Z,98869.93
2018-07-07T20:41:03.887Z,98866.91
2018-07-07T20:43:33.177Z,98873.63
2018-07-07T20:46:02.509Z,98393.87
2018-07-07T20:48:31.741Z,98871.37
2018-07-07T20:51:00.971Z,98871.58
2018-07-07T20:53:30.234Z,98867.54
2018-07-07T20:55:59.422Z,98871.77
2018-07-07T20:58:28.644Z,98869.01
2018-07-07T21:00:57.867Z,98868.08
2018-07-07T21:03:27.034Z,98863.24
2018-07-07T21:05:56.365Z,98861.44
2018-07-07T21:08:25.583Z,98862.98
2018-07-07T21:10:54.781Z,98864.92
2018-07-07T21:13:24.037Z,98868.95
2018-07-07T21:15:53.292Z,98867.45
2018-07-07T21:18:22.517Z,98865.47
2018-07-07T21:20:51.717Z,98876.80
2018-07-07T21:23:20.971Z,98863.44
2018-07-07T21:25:50.181Z,98866.26
2018-07-07T21:28:19.409Z,98859.48
2018-07-07T21:30:48.617Z,98866.17
2018-07-07T21:33:18.785Z,98862.66
2018-07-07T21:35:48.048Z,98813.00
2018-07-07T21:38:17.250Z,98865.65
2018-07-07T21:40:46.468Z,98868.98
2018-07-07T21:43:15.780Z,98876.33
2018-07-07T21:45:45.206Z,98875.72
2018-07-07T21:48:14.513Z,98871.94
2018-07-07T21:50:43.797Z,98874.96
2018-07-07T21:53:12.957Z,98877.80
2018-07-07T21:55:42.145Z,98878.52
2018-07-07T21:58:16.586Z,98877.70
2018-07-07T22:01:02.548Z,98882.01
2018-07-07T22:03:37.109Z,98886.11
2018-07-07T22:06:08.397Z,98887.89
2018-07-07T22:08:38.129Z,98885.18
2018-07-07T22:11:07.770Z,98890.44
2018-07-07T22:13:37.642Z,98892.78
2018-07-07T22:16:06.986Z,98885.53
2018-07-07T22:18:36.126Z,98889.88
2018-07-07T22:21:16.461Z,98893.42
2018-07-07T22:23:45.720Z,98887.19
2018-07-07T22:26:15.024Z,98887.77
2018-07-07T22:28:44.441Z,98884.43
2018-07-07T22:31:13.726Z,98891.30
2018-07-07T22:33:42.888Z,98889.86
2018-07-07T22:36:48.860Z,98889.23
2018-07-07T22:39:18.136Z,98891.34
2018-07-07T22:42:02.545Z,98883.23
2018-07-07T22:44:32.499Z,98886.33
2018-07-07T22:47:01.800Z,98884.40
2018-07-07T22:49:31.638Z,98883.92
2018-07-07T22:52:01.284Z,98880.43
2018-07-07T22:54:30.609Z,98892.09
2018-07-07T22:56:59.747Z,98886.09
2018-07-07T22:59:29.080Z,98891.02
2018-07-07T23:01:58.318Z,98895.81
2018-07-07T23:04:27.575Z,98893.36
2018-07-07T23:06:57.067Z,98886.41
2018-07-07T23:09:26.317Z,98887.97
2018-07-07T23:11:55.557Z,98890.11
2018-07-07T23:14:24.787Z,98887.07
2018-07-07T23:16:57.789Z,98892.39
2018-07-07T23:19:27.505Z,98892.49
2018-07-07T23:21:57.176Z,98890.66
2018-07-07T23:24:26.372Z,98897.30
2018-07-07T23:26:55.638Z,98895.56
2018-07-07T23:29:24.927Z,98898.13
2018-07-07T23:31:54.165Z,98902.81
2018-07-07T23:34:23.421Z,98899.14
2018-07-07T23:36:52.770Z,98900.45
2018-07-07T23:39:22.018Z,98899.86
2018-07-07T23:41:51.471Z,98906.09
2018-07-07T23:44:20.652Z,98904.35
2018-07-07T23:46:49.940Z,98903.31
2018-07-07T23:49:19.242Z,98905.46
2018-07-07T23:51:48.477Z,98899.41
2018-07-07T23:54:17.641Z,98905.97
2018-07-07T23:56:46.819Z,98902.11
2018-07-07T23:59:16.037Z,98903.85
